createdAt,value
2018-08-13T00:01:33.186Z,59.50
2018-08-13T00:04:12.439Z,59.80
2018-08-13T00:06:49.028Z,60.00
2018-08-13T00:09:30.804Z,60.20
2018-08-13T00:12:07.804Z,60.70
2018-08-13T00:14:45.814Z,60.50
2018-08-13T00:17:23.678Z,59.20
2018-08-13T00:20:02.202Z,58.90
2018-08-13T00:22:38.638Z,59.30
2018-08-13T00:25:15.277Z,58.50
2018-08-13T00:27:51.260Z,58.70
2018-08-13T00:30:29.280Z,59.30
2018-08-13T00:33:06.146Z,60.00
2018-08-13T00:35:42.273Z,59.20
2018-08-13T00:38:18.845Z,60.30
2018-08-13T00:40:55.310Z,60.90
2018-08-13T00:43:31.637Z,61.60
2018-08-13T00:46:09.404Z,61.80
2018-08-13T00:48:46.205Z,60.70
2018-08-13T00:51:22.293Z,60.30
2018-08-13T00:54:00.280Z,60.90
2018-08-13T00:56:37.878Z,61.80
2018-08-13T00:59:14.957Z,61.10
2018-08-13T01:01:50.635Z,62.70
2018-08-13T01:04:27.894Z,63.30
2018-08-13T01:07:05.580Z,61.30
2018-08-13T01:09:42.777Z,60.80
2018-08-13T01:12:19.619Z,60.60
2018-08-13T01:14:56.316Z,59.90
2018-08-13T01:17:34.466Z,59.20
2018-08-13T01:20:12.898Z,59.10
2018-08-13T01:22:50.358Z,59.30
2018-08-13T01:25:27.912Z,59.20
2018-08-13T01:28:05.317Z,59.90
2018-08-13T01:30:42.099Z,59.00
2018-08-13T01:33:19.251Z,59.50
2018-08-13T01:35:55.031Z,59.30
2018-08-13T01:38:32.516Z,59.80
2018-08-13T01:41:09.697Z,59.20
2018-08-13T01:43:48.950Z,59.20
2018-08-13T01:46:25.717Z,58.70
2018-08-13T01:49:02.984Z,59.90
2018-08-13T01:51:39.391Z,58.90
2018-08-13T01:54:16.414Z,58.90
2018-08-13T01:56:59.406Z,58.80
2018-08-13T01:59:36.109Z,59.10
2018-08-13T02:02:14.418Z,59.70
2018-08-13T02:04:52.142Z,60.00
2018-08-13T02:07:29.889Z,59.90
2018-08-13T02:10:10.137Z,59.90
2018-08-13T02:12:46.866Z,60.00
2018-08-13T02:15:22.732Z,60.30
2018-08-13T02:18:00.365Z,59.90
2018-08-13T02:20:36.909Z,59.40
2018-08-13T02:23:14.389Z,59.80
2018-08-13T02:25:51.094Z,59.70
2018-08-13T02:28:27.453Z,59.20
2018-08-13T02:31:04.059Z,59.00
2018-08-13T02:33:40.228Z,59.40
2018-08-13T02:36:18.107Z,59.70
2018-08-13T02:38:55.666Z,59.50
2018-08-13T02:41:31.451Z,59.60
2018-08-13T02:44:08.011Z,59.70
2018-08-13T02:46:45.139Z,59.80
2018-08-13T02:49:21.210Z,59.80
2018-08-13T02:51:57.646Z,61.00
2018-08-13T02:54:35.905Z,60.80
2018-08-13T02:57:14.449Z,61.10
2018-08-13T02:59:52.586Z,61.00
2018-08-13T03:02:28.279Z,62.00
2018-08-13T03:05:09.399Z,62.30
2018-08-13T03:07:45.931Z,63.30
2018-08-13T03:10:22.694Z,64.20
2018-08-13T03:12:59.565Z,64.60
2018-08-13T03:15:35.739Z,64.90
2018-08-13T03:18:13.830Z,65.10
2018-08-13T03:20:50.417Z,66.00
2018-08-13T03:23:26.767Z,66.10
2018-08-13T03:26:05.174Z,64.20
2018-08-13T03:28:42.888Z,65.00
2018-08-13T03:31:19.316Z,65.10
2018-08-13T03:33:56.502Z,64.90
2018-08-13T03:36:35.142Z,65.30
2018-08-13T03:39:14.193Z,66.40
2018-08-13T03:41:50.644Z,67.70
2018-08-13T03:44:27.456Z,67.10
2018-08-13T03:47:04.024Z,64.50
2018-08-13T03:49:42.001Z,64.40
2018-08-13T03:52:18.602Z,63.80
2018-08-13T03:54:56.378Z,64.10
2018-08-13T03:57:32.831Z,64.90
2018-08-13T04:00:15.820Z,64.30
2018-08-13T04:02:52.451Z,63.70
2018-08-13T04:05:29.605Z,62.80
2018-08-13T04:08:06.111Z,62.40
2018-08-13T04:10:43.058Z,62.20
2018-08-13T04:13:20.360Z,62.10
2018-08-13T04:15:56.398Z,63.10
2018-08-13T04:18:32.227Z,62.20
2018-08-13T04:21:08.869Z,61.50
2018-08-13T04:23:45.646Z,61.60
2018-08-13T04:26:23.024Z,61.00
2018-08-13T04:29:00.824Z,60.40
2018-08-13T04:31:37.084Z,60.40
2018-08-13T04:34:13.078Z,60.20
2018-08-13T04:36:49.893Z,60.00
2018-08-13T04:39:26.659Z,60.00
2018-08-13T04:42:02.687Z,59.80
2018-08-13T04:44:40.147Z,59.00
2018-08-13T04:47:17.942Z,57.10
2018-08-13T04:49:55.337Z,55.80
2018-08-13T04:52:33.430Z,55.00
2018-08-13T04:55:11.577Z,54.40
2018-08-13T04:57:49.490Z,54.00
2018-08-13T05:00:26.868Z,54.60
2018-08-13T05:03:04.652Z,54.40
2018-08-13T05:05:42.867Z,55.40
2018-08-13T05:08:21.165Z,55.60
2018-08-13T05:10:59.569Z,55.00
2018-08-13T05:13:36.518Z,53.50
2018-08-13T05:16:14.226Z,51.70
2018-08-13T05:18:50.772Z,51.90
2018-08-13T05:21:29.267Z,52.80
2018-08-13T05:24:06.654Z,53.80
2018-08-13T05:26:43.460Z,54.30
2018-08-13T05:29:21.825Z,55.00
2018-08-13T05:31:58.723Z,54.50
2018-08-13T05:34:35.636Z,55.10
2018-08-13T05:37:11.485Z,55.30
2018-08-13T05:39:48.170Z,54.70
2018-08-13T05:42:24.605Z,55.00
2018-08-13T05:45:02.207Z,54.80
2018-08-13T05:47:39.882Z,54.40
2018-08-13T05:50:16.012Z,54.30
2018-08-13T05:52:53.115Z,54.10
2018-08-13T05:55:30.258Z,53.50
2018-08-13T05:58:07.571Z,53.70
2018-08-13T06:00:45.504Z,52.90
2018-08-13T06:03:23.016Z,53.60
2018-08-13T06:06:00.263Z,52.80
2018-08-13T06:08:37.627Z,52.10
2018-08-13T06:11:15.853Z,52.10
2018-08-13T06:13:52.306Z,52.20
2018-08-13T06:16:30.005Z,51.70
2018-08-13T06:19:07.812Z,51.00
2018-08-13T06:21:44.084Z,50.80
2018-08-13T06:24:20.940Z,50.60
2018-08-13T06:26:59.304Z,50.80
2018-08-13T06:29:36.862Z,49.80
2018-08-13T06:32:13.315Z,49.10
2018-08-13T06:34:50.306Z,49.40
2018-08-13T06:37:26.922Z,48.40
2018-08-13T06:40:05.382Z,48.20
2018-08-13T06:42:43.384Z,48.00
2018-08-13T06:45:21.261Z,47.70
2018-08-13T06:47:58.210Z,47.60
2018-08-13T06:50:35.998Z,47.50
2018-08-13T06:53:13.339Z,47.10
2018-08-13T06:55:52.034Z,46.80
2018-08-13T06:58:28.849Z,46.70
2018-08-13T07:01:05.804Z,46.00
2018-08-13T07:03:42.857Z,45.30
2018-08-13T07:06:20.418Z,45.00
2018-08-13T07:08:56.750Z,44.40
2018-08-13T07:11:33.994Z,44.00
2018-08-13T07:14:11.716Z,44.30
2018-08-13T07:16:47.868Z,44.30
2018-08-13T07:19:23.669Z,43.90
2018-08-13T07:22:00.807Z,43.10
2018-08-13T07:24:38.428Z,43.70
2018-08-13T07:27:16.639Z,42.70
2018-08-13T07:29:56.236Z,42.90
2018-08-13T07:32:34.930Z,43.00
2018-08-13T07:35:11.600Z,42.90
2018-08-13T07:37:49.404Z,42.80
2018-08-13T07:40:26.690Z,43.10
2018-08-13T07:43:03.565Z,42.70
2018-08-13T07:45:40.801Z,42.10
2018-08-13T07:48:20.017Z,41.10
2018-08-13T07:50:56.881Z,41.00
2018-08-13T07:53:34.154Z,39.30
2018-08-13T07:56:12.629Z,39.00
2018-08-13T07:58:50.434Z,37.60
2018-08-13T08:01:28.779Z,36.50
2018-08-13T08:04:06.311Z,33.60
2018-08-13T08:06:43.828Z,30.60
2018-08-13T08:09:22.340Z,27.90
2018-08-13T08:11:59.765Z,27.00
2018-08-13T08:14:38.847Z,25.90
2018-08-13T08:17:18.268Z,24.80
2018-08-13T08:19:55.598Z,24.70
2018-08-13T08:22:31.889Z,24.40
2018-08-13T08:25:12.213Z,23.50
2018-08-13T08:27:49.481Z,24.10
2018-08-13T08:30:25.149Z,23.70
2018-08-13T08:33:03.031Z,23.30
2018-08-13T08:35:40.534Z,23.30
2018-08-13T08:38:17.282Z,23.00
2018-08-13T08:40:54.435Z,23.50
2018-08-13T08:43:31.738Z,23.50
2018-08-13T08:46:08.914Z,23.70
2018-08-13T08:48:46.112Z,23.80
2018-08-13T08:51:23.321Z,23.00
2018-08-13T08:54:01.808Z,22.90
2018-08-13T08:56:40.558Z,21.90
2018-08-13T08:59:17.257Z,21.00
2018-08-13T09:01:54.110Z,20.60
2018-08-13T09:04:31.816Z,20.40
2018-08-13T09:07:10.204Z,20.90
2018-08-13T09:09:49.121Z,20.30
2018-08-13T09:12:27.111Z,21.90
2018-08-13T09:15:03.545Z,20.90
2018-08-13T09:17:59.383Z,20.90
2018-08-13T09:20:52.356Z,21.00
2018-08-13T09:23:47.165Z,21.00
2018-08-13T09:26:41.814Z,21.40
2018-08-13T09:29:37.092Z,20.70
2018-08-13T09:32:33.552Z,21.50
2018-08-13T09:35:19.441Z,20.50
2018-08-13T09:37:58.054Z,20.50
2018-08-13T09:40:34.817Z,21.00
2018-08-13T09:43:12.332Z,20.90
2018-08-13T09:45:53.266Z,21.70
2018-08-13T09:48:30.483Z,21.00
2018-08-13T09:51:07.248Z,20.80
2018-08-13T09:53:45.980Z,19.50
2018-08-13T09:56:23.613Z,19.90
2018-08-13T09:59:01.457Z,20.30
2018-08-13T10:01:38.975Z,20.20
2018-08-13T10:04:17.093Z,19.70
2018-08-13T10:06:54.563Z,19.90
2018-08-13T10:09:33.398Z,20.00
2018-08-13T10:12:11.979Z,20.40
2018-08-13T10:14:49.014Z,20.70
2018-08-13T10:17:25.865Z,20.30
2018-08-13T10:20:04.525Z,19.90
2018-08-13T10:22:43.590Z,19.80
2018-08-13T10:25:19.486Z,19.10
2018-08-13T10:27:57.113Z,18.60
2018-08-13T10:30:33.890Z,18.50
2018-08-13T10:33:11.735Z,19.60
2018-08-13T10:35:49.332Z,19.20
2018-08-13T10:38:26.646Z,19.90
2018-08-13T10:41:04.646Z,19.40
2018-08-13T10:43:43.570Z,20.10
2018-08-13T10:46:21.861Z,20.60
2018-08-13T10:48:59.669Z,20.30
2018-08-13T10:51:36.049Z,19.40
2018-08-13T10:54:12.733Z,20.20
2018-08-13T10:56:50.068Z,19.80
2018-08-13T10:59:27.153Z,19.80
2018-08-13T11:02:03.555Z,18.70
2018-08-13T11:04:41.013Z,19.50
2018-08-13T11:07:17.812Z,19.80
2018-08-13T11:09:57.364Z,19.50
2018-08-13T11:12:35.885Z,19.10
2018-08-13T11:15:17.008Z,19.00
2018-08-13T11:17:54.637Z,17.90
2018-08-13T11:20:32.765Z,17.80
2018-08-13T11:23:10.666Z,17.70
2018-08-13T11:25:48.521Z,17.80
2018-08-13T11:28:26.643Z,18.40
2018-08-13T11:31:03.975Z,19.50
2018-08-13T11:33:42.741Z,21.00
2018-08-13T11:36:20.293Z,20.50
2018-08-13T11:38:59.537Z,20.70
2018-08-13T11:41:37.190Z,20.20
2018-08-13T11:44:16.046Z,20.70
2018-08-13T11:46:52.661Z,20.60
2018-08-13T11:49:29.913Z,21.50
2018-08-13T11:52:07.187Z,21.30
2018-08-13T11:54:44.581Z,21.80
2018-08-13T11:57:21.560Z,22.90
2018-08-13T11:59:58.479Z,22.20
2018-08-13T12:02:36.151Z,23.10
2018-08-13T12:05:13.881Z,23.90
2018-08-13T12:07:51.978Z,24.00
2018-08-13T12:10:29.514Z,24.60
2018-08-13T12:13:07.617Z,24.90
2018-08-13T12:15:44.348Z,25.30
2018-08-13T12:18:22.207Z,24.60
2018-08-13T12:21:00.250Z,25.90
2018-08-13T12:23:37.692Z,25.30
2018-08-13T12:26:16.313Z,24.80
2018-08-13T12:28:54.168Z,24.60
2018-08-13T12:31:31.369Z,24.70
2018-08-13T12:34:08.782Z,24.60
2018-08-13T12:36:46.328Z,25.30
2018-08-13T12:39:24.657Z,25.10
2018-08-13T12:42:01.243Z,24.40
2018-08-13T12:44:39.604Z,23.30
2018-08-13T12:47:17.042Z,22.30
2018-08-13T12:49:55.180Z,23.10
2018-08-13T12:52:32.383Z,23.80
2018-08-13T12:55:10.853Z,24.50
2018-08-13T12:57:47.668Z,25.10
2018-08-13T13:00:25.806Z,25.20
2018-08-13T13:03:04.218Z,25.10
2018-08-13T13:05:41.484Z,24.00
2018-08-13T13:08:18.308Z,23.50
2018-08-13T13:10:54.683Z,22.50
2018-08-13T13:13:32.254Z,22.40
2018-08-13T13:16:10.351Z,21.70
2018-08-13T13:18:47.543Z,21.30
2018-08-13T13:21:24.850Z,21.00
2018-08-13T13:24:02.939Z,21.20
2018-08-13T13:26:40.649Z,22.10
2018-08-13T13:29:18.469Z,22.70
2018-08-13T13:31:54.917Z,23.30
2018-08-13T13:34:32.576Z,23.80
2018-08-13T13:37:10.426Z,23.90
2018-08-13T13:39:48.569Z,24.20
2018-08-13T13:42:25.502Z,25.10
2018-08-13T13:45:02.531Z,25.30
2018-08-13T13:47:40.214Z,26.50
2018-08-13T13:50:19.083Z,26.70
2018-08-13T13:52:56.084Z,27.10
2018-08-13T13:55:33.961Z,27.60
2018-08-13T13:58:12.467Z,27.80
2018-08-13T14:00:50.017Z,27.70
2018-08-13T14:03:27.607Z,27.40
2018-08-13T14:06:05.332Z,28.00
2018-08-13T14:08:42.830Z,28.30
2018-08-13T14:11:20.559Z,28.90
2018-08-13T14:13:58.242Z,29.30
2018-08-13T14:16:36.282Z,28.80
2018-08-13T14:19:14.187Z,29.20
2018-08-13T14:21:51.386Z,29.60
2018-08-13T14:24:27.440Z,28.90
2018-08-13T14:27:04.933Z,28.20
2018-08-13T14:29:41.830Z,28.30
2018-08-13T14:32:19.321Z,28.40
2018-08-13T14:34:56.671Z,28.20
2018-08-13T14:37:35.261Z,28.30
2018-08-13T14:40:13.757Z,29.40
2018-08-13T14:42:51.468Z,29.00
2018-08-13T14:45:28.082Z,29.40
2018-08-13T14:48:06.067Z,29.80
2018-08-13T14:50:43.877Z,30.00
2018-08-13T14:53:20.216Z,29.90
2018-08-13T14:55:56.709Z,30.10
2018-08-13T14:58:33.327Z,30.10
2018-08-13T15:01:10.053Z,30.70
2018-08-13T15:03:47.717Z,31.10
2018-08-13T15:06:24.840Z,31.50
2018-08-13T15:09:04.008Z,32.20
2018-08-13T15:11:42.349Z,32.60
2018-08-13T15:14:19.501Z,33.30
2018-08-13T15:16:56.671Z,34.20
2018-08-13T15:19:33.521Z,35.00
2018-08-13T15:22:10.695Z,35.90
2018-08-13T15:24:48.242Z,36.60
2018-08-13T15:27:26.631Z,37.50
2018-08-13T15:30:05.014Z,39.80
2018-08-13T15:32:44.649Z,39.30
2018-08-13T15:35:21.957Z,39.30
2018-08-13T15:37:58.194Z,39.30
2018-08-13T15:40:34.839Z,39.80
2018-08-13T15:43:12.498Z,39.70
2018-08-13T15:45:49.773Z,39.80
2018-08-13T15:48:27.747Z,40.20
2018-08-13T15:51:05.557Z,40.60
2018-08-13T15:53:43.180Z,41.10
2018-08-13T15:56:20.410Z,41.50
2018-08-13T15:58:56.777Z,41.90
2018-08-13T16:01:33.051Z,42.30
2018-08-13T16:04:10.704Z,42.70
2018-08-13T16:06:47.625Z,42.90
2018-08-13T16:09:23.726Z,43.00
2018-08-13T16:12:00.792Z,43.30
2018-08-13T16:14:37.925Z,43.10
2018-08-13T16:17:14.746Z,43.50
2018-08-13T16:19:50.721Z,43.50
2018-08-13T16:22:27.169Z,43.90
2018-08-13T16:25:03.117Z,44.60
2018-08-13T16:27:42.778Z,44.50
2018-08-13T16:30:24.000Z,44.90
2018-08-13T16:33:02.296Z,45.00
2018-08-13T16:35:40.349Z,45.00
2018-08-13T16:38:18.620Z,45.20
2018-08-13T16:40:58.723Z,46.00
2018-08-13T16:43:37.951Z,46.30
2018-08-13T16:46:14.691Z,45.70
2018-08-13T16:48:50.860Z,45.70
2018-08-13T16:51:27.388Z,45.80
2018-08-13T16:54:04.155Z,45.60
2018-08-13T16:56:41.881Z,46.00
2018-08-13T16:59:18.447Z,46.20
2018-08-13T17:01:55.802Z,46.30
2018-08-13T17:04:32.687Z,46.40
2018-08-13T17:07:10.205Z,46.60
2018-08-13T17:09:46.478Z,46.80
2018-08-13T17:12:24.687Z,47.10
2018-08-13T17:15:03.690Z,47.50
2018-08-13T17:17:40.975Z,47.50
2018-08-13T17:20:21.250Z,47.60
2018-08-13T17:22:58.131Z,47.70
2018-08-13T17:25:35.259Z,48.30
2018-08-13T17:28:12.867Z,48.20
2018-08-13T17:30:49.790Z,48.30
2018-08-13T17:33:26.817Z,48.40
2018-08-13T17:36:04.479Z,48.70
2018-08-13T17:38:40.609Z,48.90
2018-08-13T17:41:17.693Z,49.10
2018-08-13T17:43:54.853Z,48.90
2018-08-13T17:46:31.934Z,49.60
2018-08-13T17:49:10.579Z,49.50
2018-08-13T17:51:48.213Z,49.50
2018-08-13T17:54:24.512Z,49.70
2018-08-13T17:57:02.311Z,49.90
2018-08-13T17:59:38.656Z,50.00
2018-08-13T18:02:16.195Z,50.30
2018-08-13T18:04:55.122Z,50.60
2018-08-13T18:07:31.933Z,50.70
2018-08-13T18:10:16.413Z,51.00
2018-08-13T18:12:52.054Z,51.50
2018-08-13T18:15:30.448Z,52.10
2018-08-13T18:18:07.571Z,52.90
2018-08-13T18:20:45.804Z,52.70
2018-08-13T18:23:22.661Z,52.80
2018-08-13T18:25:59.890Z,53.00
2018-08-13T18:28:36.233Z,53.60
2018-08-13T18:31:12.173Z,53.30
2018-08-13T18:33:48.942Z,53.30
2018-08-13T18:36:25.330Z,53.50
2018-08-13T18:39:02.267Z,53.60
2018-08-13T18:41:39.226Z,53.90
2018-08-13T18:44:15.813Z,53.90
2018-08-13T18:46:51.581Z,53.90
2018-08-13T18:49:28.082Z,53.90
2018-08-13T18:52:04.445Z,54.20
2018-08-13T18:54:41.605Z,54.50
2018-08-13T18:57:18.737Z,54.40
2018-08-13T18:59:55.572Z,54.60
2018-08-13T19:02:32.617Z,54.60
2018-08-13T19:05:10.355Z,54.80
2018-08-13T19:07:47.878Z,55.00
2018-08-13T19:10:25.781Z,55.00
2018-08-13T19:13:03.726Z,55.40
2018-08-13T19:15:40.481Z,55.10
2018-08-13T19:18:16.693Z,55.40
2018-08-13T19:20:53.906Z,56.10
2018-08-13T19:23:30.778Z,58.20
2018-08-13T19:26:08.507Z,59.00
2018-08-13T19:28:47.250Z,58.20
2018-08-13T19:31:23.951Z,57.90
2018-08-13T19:34:01.179Z,58.40
2018-08-13T19:36:36.899Z,59.20
2018-08-13T19:39:15.061Z,59.00
2018-08-13T19:41:51.158Z,59.10
2018-08-13T19:44:28.521Z,59.20
2018-08-13T19:47:05.527Z,59.50
2018-08-13T19:49:42.302Z,60.00
2018-08-13T19:52:18.873Z,59.60
2018-08-13T19:54:55.488Z,59.90
2018-08-13T19:57:31.430Z,60.80
2018-08-13T20:00:15.449Z,61.20
2018-08-13T20:02:52.367Z,62.40
2018-08-13T20:05:30.165Z,63.90
2018-08-13T20:08:08.069Z,66.70
2018-08-13T20:10:44.896Z,70.50
2018-08-13T20:13:21.960Z,71.70
2018-08-13T20:15:59.596Z,74.10
2018-08-13T20:18:36.187Z,75.30
2018-08-13T20:21:13.685Z,75.50
2018-08-13T20:23:50.875Z,78.50
2018-08-13T20:26:27.769Z,78.90
2018-08-13T20:29:05.780Z,80.00
2018-08-13T20:31:42.447Z,80.40
2018-08-13T20:34:19.839Z,81.60
2018-08-13T20:36:57.953Z,82.10
2018-08-13T20:39:34.736Z,82.60
2018-08-13T20:42:13.211Z,82.80
2018-08-13T20:44:49.758Z,83.40
2018-08-13T20:47:27.336Z,84.40
2018-08-13T20:50:05.438Z,84.60
2018-08-13T20:52:42.620Z,84.70
2018-08-13T20:55:24.243Z,85.10
2018-08-13T20:58:02.322Z,85.40
2018-08-13T21:00:38.889Z,85.90
2018-08-13T21:03:15.629Z,85.90
2018-08-13T21:05:51.956Z,86.00
2018-08-13T21:08:30.996Z,85.80
2018-08-13T21:11:08.925Z,86.40
2018-08-13T21:13:45.861Z,86.30
2018-08-13T21:16:23.436Z,86.80
2018-08-13T21:19:01.007Z,87.20
2018-08-13T21:21:37.535Z,87.40
2018-08-13T21:24:13.858Z,87.50
2018-08-13T21:26:49.581Z,87.40
2018-08-13T21:29:28.045Z,87.80
2018-08-13T21:32:03.877Z,87.90
2018-08-13T21:34:41.409Z,87.80
2018-08-13T21:37:18.466Z,87.80
2018-08-13T21:39:55.266Z,87.60
2018-08-13T21:42:39.165Z,87.50
2018-08-13T21:45:17.406Z,87.10
2018-08-13T21:47:54.775Z,87.70
2018-08-13T21:50:32.936Z,87.70
2018-08-13T21:53:09.628Z,87.20
2018-08-13T21:55:45.470Z,87.20
2018-08-13T21:58:21.793Z,87.10
2018-08-13T22:01:03.470Z,87.30
2018-08-13T22:03:41.626Z,87.20
2018-08-13T22:06:17.970Z,86.40
2018-08-13T22:08:55.362Z,85.80
2018-08-13T22:11:32.386Z,85.80
2018-08-13T22:14:10.511Z,85.60
2018-08-13T22:16:48.149Z,86.50
2018-08-13T22:19:25.023Z,86.10
2018-08-13T22:22:00.903Z,85.40
2018-08-13T22:24:55.719Z,84.90
2018-08-13T22:27:32.921Z,84.50
2018-08-13T22:30:11.109Z,84.60
2018-08-13T22:32:49.539Z,84.60
2018-08-13T22:35:25.828Z,84.70
2018-08-13T22:38:01.496Z,85.80
2018-08-13T22:40:40.341Z,86.50
2018-08-13T22:43:18.535Z,86.90
2018-08-13T22:45:55.979Z,87.20
2018-08-13T22:48:33.557Z,87.60
2018-08-13T22:51:10.676Z,87.20
2018-08-13T22:53:47.412Z,87.20
2018-08-13T22:56:23.235Z,87.70
2018-08-13T22:59:00.454Z,87.40
2018-08-13T23:01:37.525Z,86.50
2018-08-13T23:04:15.308Z,87.00
2018-08-13T23:06:51.774Z,86.20
2018-08-13T23:09:28.201Z,86.30
2018-08-13T23:12:08.600Z,86.20
2018-08-13T23:14:49.207Z,86.00
2018-08-13T23:17:24.981Z,85.80
2018-08-13T23:20:02.113Z,86.30
2018-08-13T23:23:03.936Z,86.40
2018-08-13T23:25:40.870Z,86.20
2018-08-13T23:28:18.128Z,86.80
2018-08-13T23:30:54.111Z,87.30
2018-08-13T23:33:31.677Z,87.60
2018-08-13T23:36:08.496Z,87.30
2018-08-13T23:38:44.429Z,87.60
2018-08-13T23:41:20.474Z,87.70
2018-08-13T23:43:56.695Z,88.20
2018-08-13T23:46:33.194Z,88.20
2018-08-13T23:49:09.498Z,88.30
2018-08-13T23:51:46.545Z,88.70
2018-08-13T23:54:24.865Z,89.00
2018-08-13T23:57:02.619Z,88.90
2018-08-13T23:59:39.336Z,89.10
